Hebron, New Hampshire
Current Conditions -  °F | °C
As of 7:55 AM on Sunday 28 Dec 2014 (Local Time) from K1P1 Reporting Station
Unknown Precip Unknown Precip  
Wind Chill: 34°   Ceiling: 200
Heat Index: 34°   Visibility: 1mi
Dew Point: 34°   Wind: 0mph
Humidity: 100%   Direction: NA
Pressure: 29.75"   Gusts: NA
Location:  43.69°N, 71.81°W
Report Text: K1P1 281255Z AUTO 00000KT 1SM UP BKN002 OVC020 01/01 A2975 RMK AO2 P0001 T00100010
Loading
Personal Weather Stations






























Interactive Weather Map New forecast layout! Learn more

10-Day Weather Forecast

Advertisements
Track Severe Weather on mobile